Terminal Aerodrome Forecast
Issued by NWS Sterling, VA

Current Version | Previous Version | Text Only | Print | Product List | Glossary Off
Versions: 1 2 3 4 5 6 7 8 9 10 11 12 13 14 15 16 17 18 19 20 21 22 23 24 25 26

000
FTUS41 KLWX 162343
TAFDCA
TAF
KDCA 162343Z 1700/1724 33007KT P6SM FEW050 BKN110
     FM170300 04004KT P6SM FEW040
     FM170900 00000KT P6SM SCT025 BKN080
     FM171600 16006KT P6SM SCT035 BKN090=

USA.gov is the U.S. government's official web portal to all federal, state and local government web resources and services.